Paramount Helsinki — 2CWB3 — position and weather

sailwx.info

Track history (hours):
 
Tides and Currents Weather Stations Pressure Air Temp Water Temp Dewpoint Dewpoint Depression Visibility Wind Speed Wind Dir Waves Ship Positions

Paramount Helsinki

Last reported at 2015-Jun-14 21:27 UTC. Time now 2015-Jul-01 01:52 UTC.
Position N 17°13' W 063°26'.
Warning: this ship's position is 16 days out of date.

Length 250 m; draft 9 m.

Type: Ship. MMSI: 235076275.

Date/timePositionNaut miles runAvg speedWind from/ knotsBaromVisibWave heightAir tempDewpointWater temp
2015-Jun-14 21:27N 17°13' W 063°26'28 9.4
2015-Jun-14 18:27N 17°28' W 063°01'2 1.3
2015-Jun-14 16:32N 17°31' W 063°01'0 0.0
2015-Jun-13 13:18N 17°31' W 063°01'1 1.5
2015-Jun-13 12:27N 17°31' W 063°03'2 2.0
2015-Jun-13 11:29N 17°32' W 063°04'1 1.0
2015-Jun-13 10:31N 17°33' W 063°04'2 2.0
2015-Jun-13 09:32N 17°32' W 063°02'6 5.6
2015-Jun-13 08:25N 17°36' W 062°57'  
2015-Jun-09 04:33N 38°21' W 059°22'1211.1
2015-Jun-09 03:31N 38°33' W 059°20'  
Track history (hours):
 
Tides and Currents Weather Stations Pressure Air Temp Water Temp Dewpoint Dewpoint Depression Visibility Wind Speed Wind Dir Waves Ship Positions

Paramount Helsinki

Last reported at 2015-Jun-14 21:27 UTC. Time now 2015-Jul-01 01:52 UTC.
Position N 17°13' W 063°26'.
Warning: this ship's position is 16 days out of date.

Length 250 m; draft 9 m.

Type: Ship. MMSI: 235076275.

Date/timePositionNaut miles runAvg speedWind from/ knotsBaromVisibWave heightAir tempDewpointWater temp
2015-Jun-14 21:27N 17°13' W 063°26'28 9.4
2015-Jun-14 18:27N 17°28' W 063°01'2 1.3
2015-Jun-14 16:32N 17°31' W 063°01'0 0.0
2015-Jun-13 13:18N 17°31' W 063°01'1 1.5
2015-Jun-13 12:27N 17°31' W 063°03'2 2.0
2015-Jun-13 11:29N 17°32' W 063°04'1 1.0
2015-Jun-13 10:31N 17°33' W 063°04'2 2.0
2015-Jun-13 09:32N 17°32' W 063°02'6 5.6
2015-Jun-13 08:25N 17°36' W 062°57'  
2015-Jun-09 04:33N 38°21' W 059°22'1211.1
2015-Jun-09 03:31N 38°33' W 059°20'  

Dump ship's entire track history